Česky Dansk Deutsch English Español Suomi Français Magyar Italiano Nederlands norsk Polski Português svenska Türkçe

 

Het Weer

Draugen (Noorwegen)

03:20, 25 juli 2016 (GMT)

NWNNE
WE
SWSSE
Home            
Draugen Orland Iii Kristiansund / Kvernberget Rorvik / Ryum Molde / Aro Namsos Lufthavn Trondheim / Vaernes Alesund / Vigra Bronnoysund / Bronnoy Orsta-Volda / Hovden Roros Lufthavn Heidrun Sandnessjoen / Stokka Sandane / Anda Mosjoen Kjaerstad Forde / Bringeland Floro Ostersund / Froson Sogndal / Haukasen Mo I Rana / Rossvoll Fagernes Leirin Rost Flyplass Voss-Bo

Om een weerknop op uw website of weblog te plaatsen, copieer onderstaande code en plak die in uw pagina. In het eerste vakje staat HTML-code, in het tweede vakje UBB-code.


Add to Google

Details

Wind speed:5 bf, 19 kn, 9.8 m/s, 21.9 miles/h, 35.2 km/h
Wind direction:ENE, 060°
Temperature:13°C, 55°F
Dew-point:13°C, 55°F
Atmospheric pressure:1016 hPa, 762.1 mmHg, 30.00 inHg, 1.003 atm
Relative humidity:100.0 %
METAR:ENDR 250320Z AUTO 06019KT 13/13 Q1016

Snelkoppelingen

Actuele weersinformatie van de hele wereld. Voeg locaties toe met het plus (+) symbool. Deze snelkoppelingen kunnen worden toegevoegd aan Google.

Lid van de Technetium groep

website free tracking
StatCounter NetStat W3C Validator

02-10-2022 05:24:06
astro.technetium.be money.technetium.be phote.technetium.be tafeltennistafel.technetium.be www.ligfiets.net